sensor_id;sensor_type;location;lat;lon;timestamp;temperature;humidity
64396;DHT22;50717;53.360;6.290;2023-04-30T00:02:15;6.00;99.90
64396;DHT22;50717;53.360;6.290;2023-04-30T00:04:40;6.20;99.90
64396;DHT22;50717;53.360;6.290;2023-04-30T00:07:06;6.00;99.90
64396;DHT22;50717;53.360;6.290;2023-04-30T00:09:32;5.70;99.90
64396;DHT22;50717;53.360;6.290;2023-04-30T00:11:58;5.80;99.90
64396;DHT22;50717;53.360;6.290;2023-04-30T00:14:24;6.10;99.90
64396;DHT22;50717;53.360;6.290;2023-04-30T00:16:50;6.30;99.90
64396;DHT22;50717;53.360;6.290;2023-04-30T00:19:16;5.50;99.90
64396;DHT22;50717;53.360;6.290;2023-04-30T00:21:41;5.70;99.90
64396;DHT22;50717;53.360;6.290;2023-04-30T00:24:07;5.70;99.90
64396;DHT22;50717;53.360;6.290;2023-04-30T00:26:33;5.90;99.90
64396;DHT22;50717;53.360;6.290;2023-04-30T00:28:58;5.60;99.90
64396;DHT22;50717;53.360;6.290;2023-04-30T00:31:24;5.70;99.90
64396;DHT22;50717;53.360;6.290;2023-04-30T00:33:50;5.60;99.90
64396;DHT22;50717;53.360;6.290;2023-04-30T00:36:16;5.80;99.90
64396;DHT22;50717;53.360;6.290;2023-04-30T00:38:42;5.80;99.90
64396;DHT22;50717;53.360;6.290;2023-04-30T00:41:07;5.90;99.90
64396;DHT22;50717;53.360;6.290;2023-04-30T00:43:33;5.40;99.90
64396;DHT22;50717;53.360;6.290;2023-04-30T00:45:59;5.80;99.90
64396;DHT22;50717;53.360;6.290;2023-04-30T00:48:25;5.50;99.90
64396;DHT22;50717;53.360;6.290;2023-04-30T00:50:51;5.60;99.90
64396;DHT22;50717;53.360;6.290;2023-04-30T00:53:16;5.90;99.90
64396;DHT22;50717;53.360;6.290;2023-04-30T00:55:43;5.60;99.90
64396;DHT22;50717;53.360;6.290;2023-04-30T00:58:08;5.70;99.90
64396;DHT22;50717;53.360;6.290;2023-04-30T01:00:35;5.90;99.90
64396;DHT22;50717;53.360;6.290;2023-04-30T01:03:01;6.40;99.90
64396;DHT22;50717;53.360;6.290;2023-04-30T01:05:27;6.90;99.90
64396;DHT22;50717;53.360;6.290;2023-04-30T01:10:25;6.10;99.90
64396;DHT22;50717;53.360;6.290;2023-04-30T01:13:05;6.00;99.90
64396;DHT22;50717;53.360;6.290;2023-04-30T01:15:45;6.30;99.90
64396;DHT22;50717;53.360;6.290;2023-04-30T01:20:52;5.60;99.90
64396;DHT22;50717;53.360;6.290;2023-04-30T01:23:47;6.20;99.90
64396;DHT22;50717;53.360;6.290;2023-04-30T01:29:05;5.90;99.90
64396;DHT22;50717;53.360;6.290;2023-04-30T01:31:32;6.60;99.90
64396;DHT22;50717;53.360;6.290;2023-04-30T01:33:58;6.40;99.90
64396;DHT22;50717;53.360;6.290;2023-04-30T01:37:01;6.90;99.90
64396;DHT22;50717;53.360;6.290;2023-04-30T01:46:17;6.70;99.90
64396;DHT22;50717;53.360;6.290;2023-04-30T01:49:11;6.40;99.90
64396;DHT22;50717;53.360;6.290;2023-04-30T01:51:43;7.50;99.90
64396;DHT22;50717;53.360;6.290;2023-04-30T01:54:19;6.70;99.90
64396;DHT22;50717;53.360;6.290;2023-04-30T01:57:05;6.60;99.90
64396;DHT22;50717;53.360;6.290;2023-04-30T01:59:34;6.50;99.90
64396;DHT22;50717;53.360;6.290;2023-04-30T02:02:00;7.30;99.90
64396;DHT22;50717;53.360;6.290;2023-04-30T02:04:26;7.40;99.90
64396;DHT22;50717;53.360;6.290;2023-04-30T02:06:51;6.40;99.90
64396;DHT22;50717;53.360;6.290;2023-04-30T02:09:17;6.90;99.90
64396;DHT22;50717;53.360;6.290;2023-04-30T02:11:43;6.70;99.90
64396;DHT22;50717;53.360;6.290;2023-04-30T02:14:08;6.60;99.90
64396;DHT22;50717;53.360;6.290;2023-04-30T02:16:34;7.30;99.90
64396;DHT22;50717;53.360;6.290;2023-04-30T02:19:01;7.60;99.90
64396;DHT22;50717;53.360;6.290;2023-04-30T02:21:26;6.40;99.90
64396;DHT22;50717;53.360;6.290;2023-04-30T02:23:53;6.50;99.90
64396;DHT22;50717;53.360;6.290;2023-04-30T02:26:19;6.60;99.90
64396;DHT22;50717;53.360;6.290;2023-04-30T02:28:46;6.70;99.90
64396;DHT22;50717;53.360;6.290;2023-04-30T02:31:11;6.50;99.90
64396;DHT22;50717;53.360;6.290;2023-04-30T02:33:37;6.50;99.90
64396;DHT22;50717;53.360;6.290;2023-04-30T02:36:03;6.50;99.90
64396;DHT22;50717;53.360;6.290;2023-04-30T02:38:29;6.30;99.90
64396;DHT22;50717;53.360;6.290;2023-04-30T02:40:54;6.20;99.90
64396;DHT22;50717;53.360;6.290;2023-04-30T02:43:20;6.60;99.90
64396;DHT22;50717;53.360;6.290;2023-04-30T02:45:46;6.70;99.90
64396;DHT22;50717;53.360;6.290;2023-04-30T02:48:12;6.60;99.90
64396;DHT22;50717;53.360;6.290;2023-04-30T02:50:37;6.60;99.90
64396;DHT22;50717;53.360;6.290;2023-04-30T02:53:03;6.90;99.90
64396;DHT22;50717;53.360;6.290;2023-04-30T02:55:29;6.60;99.90
64396;DHT22;50717;53.360;6.290;2023-04-30T02:57:55;6.80;99.90
64396;DHT22;50717;53.360;6.290;2023-04-30T03:00:21;6.60;99.90
64396;DHT22;50717;53.360;6.290;2023-04-30T03:02:47;6.90;99.90
64396;DHT22;50717;53.360;6.290;2023-04-30T03:05:13;6.70;99.90
64396;DHT22;50717;53.360;6.290;2023-04-30T03:07:40;6.80;99.90
64396;DHT22;50717;53.360;6.290;2023-04-30T03:10:06;7.00;99.90
64396;DHT22;50717;53.360;6.290;2023-04-30T03:12:32;6.10;99.90
64396;DHT22;50717;53.360;6.290;2023-04-30T03:14:58;6.70;99.90
64396;DHT22;50717;53.360;6.290;2023-04-30T03:17:23;6.40;99.90
64396;DHT22;50717;53.360;6.290;2023-04-30T03:19:50;6.60;99.90
64396;DHT22;50717;53.360;6.290;2023-04-30T03:22:15;6.40;99.90
64396;DHT22;50717;53.360;6.290;2023-04-30T03:24:44;6.00;99.90
64396;DHT22;50717;53.360;6.290;2023-04-30T03:27:10;6.40;99.90
64396;DHT22;50717;53.360;6.290;2023-04-30T03:29:35;6.40;99.90
64396;DHT22;50717;53.360;6.290;2023-04-30T03:32:01;6.50;99.90
64396;DHT22;50717;53.360;6.290;2023-04-30T03:34:27;6.50;99.90
64396;DHT22;50717;53.360;6.290;2023-04-30T03:36:52;6.30;99.90
64396;DHT22;50717;53.360;6.290;2023-04-30T03:41:44;6.10;99.90
64396;DHT22;50717;53.360;6.290;2023-04-30T03:44:10;6.10;99.90
64396;DHT22;50717;53.360;6.290;2023-04-30T03:46:40;5.90;99.90
64396;DHT22;50717;53.360;6.290;2023-04-30T03:49:07;6.20;99.90
64396;DHT22;50717;53.360;6.290;2023-04-30T03:51:33;6.10;99.90
64396;DHT22;50717;53.360;6.290;2023-04-30T03:54:04;5.50;99.90
64396;DHT22;50717;53.360;6.290;2023-04-30T03:56:31;6.10;99.90
64396;DHT22;50717;53.360;6.290;2023-04-30T03:58:57;5.80;99.90
64396;DHT22;50717;53.360;6.290;2023-04-30T04:01:23;5.90;99.90
64396;DHT22;50717;53.360;6.290;2023-04-30T04:03:49;5.90;99.90
64396;DHT22;50717;53.360;6.290;2023-04-30T04:06:15;5.70;99.90
64396;DHT22;50717;53.360;6.290;2023-04-30T04:08:40;6.00;99.90
64396;DHT22;50717;53.360;6.290;2023-04-30T04:13:34;5.60;99.90
64396;DHT22;50717;53.360;6.290;2023-04-30T04:18:26;5.90;99.90
64396;DHT22;50717;53.360;6.290;2023-04-30T04:20:52;6.30;99.90
64396;DHT22;50717;53.360;6.290;2023-04-30T04:23:17;6.00;99.90
64396;DHT22;50717;53.360;6.290;2023-04-30T04:25:43;5.90;99.90
64396;DHT22;50717;53.360;6.290;2023-04-30T04:28:09;6.10;99.90
64396;DHT22;50717;53.360;6.290;2023-04-30T04:30:34;6.30;99.90
64396;DHT22;50717;53.360;6.290;2023-04-30T04:33:01;6.60;99.90
64396;DHT22;50717;53.360;6.290;2023-04-30T04:35:26;6.40;99.90
64396;DHT22;50717;53.360;6.290;2023-04-30T04:37:52;6.40;99.90
64396;DHT22;50717;53.360;6.290;2023-04-30T04:40:18;6.40;99.90
64396;DHT22;50717;53.360;6.290;2023-04-30T04:42:43;6.80;99.90
64396;DHT22;50717;53.360;6.290;2023-04-30T04:45:09;6.50;99.90
64396;DHT22;50717;53.360;6.290;2023-04-30T04:47:35;6.40;99.90
64396;DHT22;50717;53.360;6.290;2023-04-30T04:50:02;6.50;99.90
64396;DHT22;50717;53.360;6.290;2023-04-30T04:52:27;6.60;99.90
64396;DHT22;50717;53.360;6.290;2023-04-30T04:54:53;6.90;99.90
64396;DHT22;50717;53.360;6.290;2023-04-30T04:57:19;6.60;99.90
64396;DHT22;50717;53.360;6.290;2023-04-30T04:59:44;6.80;99.90
64396;DHT22;50717;53.360;6.290;2023-04-30T05:02:10;6.70;99.90
64396;DHT22;50717;53.360;6.290;2023-04-30T05:04:36;7.00;99.90
64396;DHT22;50717;53.360;6.290;2023-04-30T05:07:01;6.90;99.90
64396;DHT22;50717;53.360;6.290;2023-04-30T05:09:28;7.30;99.90
64396;DHT22;50717;53.360;6.290;2023-04-30T05:11:53;6.90;99.90
64396;DHT22;50717;53.360;6.290;2023-04-30T05:14:19;6.90;99.90
64396;DHT22;50717;53.360;6.290;2023-04-30T05:16:45;7.50;99.90
64396;DHT22;50717;53.360;6.290;2023-04-30T05:19:11;7.10;99.90
64396;DHT22;50717;53.360;6.290;2023-04-30T05:21:37;6.90;99.90
64396;DHT22;50717;53.360;6.290;2023-04-30T05:24:04;7.20;99.90
64396;DHT22;50717;53.360;6.290;2023-04-30T05:26:30;7.10;99.90
64396;DHT22;50717;53.360;6.290;2023-04-30T05:28:56;7.40;99.90
64396;DHT22;50717;53.360;6.290;2023-04-30T05:31:21;7.40;99.90
64396;DHT22;50717;53.360;6.290;2023-04-30T05:33:47;7.60;99.90
64396;DHT22;50717;53.360;6.290;2023-04-30T05:36:13;7.70;99.90
64396;DHT22;50717;53.360;6.290;2023-04-30T05:38:39;7.50;99.90
64396;DHT22;50717;53.360;6.290;2023-04-30T05:41:04;7.30;99.90
64396;DHT22;50717;53.360;6.290;2023-04-30T05:43:30;7.60;99.90
64396;DHT22;50717;53.360;6.290;2023-04-30T05:45:56;7.40;99.90
64396;DHT22;50717;53.360;6.290;2023-04-30T05:48:22;7.20;99.90
64396;DHT22;50717;53.360;6.290;2023-04-30T05:50:47;7.60;99.90
64396;DHT22;50717;53.360;6.290;2023-04-30T05:53:13;7.90;99.90
64396;DHT22;50717;53.360;6.290;2023-04-30T05:55:38;7.70;99.90
64396;DHT22;50717;53.360;6.290;2023-04-30T05:58:04;7.60;99.90
64396;DHT22;50717;53.360;6.290;2023-04-30T06:00:30;7.80;99.90
64396;DHT22;50717;53.360;6.290;2023-04-30T06:02:56;7.90;99.90
64396;DHT22;50717;53.360;6.290;2023-04-30T06:05:22;8.00;99.90
64396;DHT22;50717;53.360;6.290;2023-04-30T06:07:47;7.90;99.90
64396;DHT22;50717;53.360;6.290;2023-04-30T06:10:13;8.10;99.90
64396;DHT22;50717;53.360;6.290;2023-04-30T06:12:39;8.00;99.90
64396;DHT22;50717;53.360;6.290;2023-04-30T06:15:05;8.00;99.90
64396;DHT22;50717;53.360;6.290;2023-04-30T06:17:31;8.30;99.90
64396;DHT22;50717;53.360;6.290;2023-04-30T06:19:57;8.20;99.90
64396;DHT22;50717;53.360;6.290;2023-04-30T06:22:25;8.70;99.90
64396;DHT22;50717;53.360;6.290;2023-04-30T06:24:51;8.60;99.90
64396;DHT22;50717;53.360;6.290;2023-04-30T06:27:17;8.80;99.90
64396;DHT22;50717;53.360;6.290;2023-04-30T06:29:42;8.90;99.90
64396;DHT22;50717;53.360;6.290;2023-04-30T06:32:08;8.70;99.90
64396;DHT22;50717;53.360;6.290;2023-04-30T06:34:34;8.60;99.90
64396;DHT22;50717;53.360;6.290;2023-04-30T06:37:00;8.60;99.90
64396;DHT22;50717;53.360;6.290;2023-04-30T06:39:25;9.10;99.90
64396;DHT22;50717;53.360;6.290;2023-04-30T06:41:51;9.00;99.90
64396;DHT22;50717;53.360;6.290;2023-04-30T06:44:17;8.70;99.90
64396;DHT22;50717;53.360;6.290;2023-04-30T06:46:43;9.40;99.90
64396;DHT22;50717;53.360;6.290;2023-04-30T06:49:09;8.80;99.90
64396;DHT22;50717;53.360;6.290;2023-04-30T06:51:34;9.40;99.90
64396;DHT22;50717;53.360;6.290;2023-04-30T06:54:00;9.30;99.90
64396;DHT22;50717;53.360;6.290;2023-04-30T06:56:26;9.50;99.90
64396;DHT22;50717;53.360;6.290;2023-04-30T06:58:51;9.30;99.90
64396;DHT22;50717;53.360;6.290;2023-04-30T07:01:17;9.30;99.90
64396;DHT22;50717;53.360;6.290;2023-04-30T07:03:43;9.20;99.90
64396;DHT22;50717;53.360;6.290;2023-04-30T07:06:09;9.30;99.90
64396;DHT22;50717;53.360;6.290;2023-04-30T07:08:35;9.30;99.90
64396;DHT22;50717;53.360;6.290;2023-04-30T07:11:01;9.20;99.90
64396;DHT22;50717;53.360;6.290;2023-04-30T07:13:26;9.10;99.90
64396;DHT22;50717;53.360;6.290;2023-04-30T07:15:53;9.40;99.90
64396;DHT22;50717;53.360;6.290;2023-04-30T07:18:19;9.30;99.90
64396;DHT22;50717;53.360;6.290;2023-04-30T07:20:45;9.50;99.90
64396;DHT22;50717;53.360;6.290;2023-04-30T07:23:10;9.50;99.90
64396;DHT22;50717;53.360;6.290;2023-04-30T07:25:36;9.60;99.90
64396;DHT22;50717;53.360;6.290;2023-04-30T07:28:01;9.90;99.90
64396;DHT22;50717;53.360;6.290;2023-04-30T07:30:27;10.10;99.90
64396;DHT22;50717;53.360;6.290;2023-04-30T07:32:53;10.00;99.90
64396;DHT22;50717;53.360;6.290;2023-04-30T07:35:18;9.90;99.90
64396;DHT22;50717;53.360;6.290;2023-04-30T07:37:44;10.00;99.90
64396;DHT22;50717;53.360;6.290;2023-04-30T07:40:10;9.80;99.90
64396;DHT22;50717;53.360;6.290;2023-04-30T07:42:39;10.40;99.90
64396;DHT22;50717;53.360;6.290;2023-04-30T07:45:09;10.00;99.90
64396;DHT22;50717;53.360;6.290;2023-04-30T07:47:37;10.50;99.90
64396;DHT22;50717;53.360;6.290;2023-04-30T07:50:03;10.70;99.90
64396;DHT22;50717;53.360;6.290;2023-04-30T07:52:29;10.50;99.90
64396;DHT22;50717;53.360;6.290;2023-04-30T07:54:55;10.60;99.90
64396;DHT22;50717;53.360;6.290;2023-04-30T07:57:20;10.90;99.90
64396;DHT22;50717;53.360;6.290;2023-04-30T07:59:46;10.80;99.90
64396;DHT22;50717;53.360;6.290;2023-04-30T08:02:12;11.00;99.90
64396;DHT22;50717;53.360;6.290;2023-04-30T08:04:37;10.90;99.90
64396;DHT22;50717;53.360;6.290;2023-04-30T08:07:03;11.10;99.90
64396;DHT22;50717;53.360;6.290;2023-04-30T08:09:29;10.90;99.90
64396;DHT22;50717;53.360;6.290;2023-04-30T08:11:55;11.10;99.90
64396;DHT22;50717;53.360;6.290;2023-04-30T08:14:20;11.10;99.90
64396;DHT22;50717;53.360;6.290;2023-04-30T08:16:46;11.00;99.90
64396;DHT22;50717;53.360;6.290;2023-04-30T08:19:12;11.70;99.90
64396;DHT22;50717;53.360;6.290;2023-04-30T08:21:38;11.30;99.90
64396;DHT22;50717;53.360;6.290;2023-04-30T08:24:04;11.30;99.90
64396;DHT22;50717;53.360;6.290;2023-04-30T08:26:30;11.50;99.90
64396;DHT22;50717;53.360;6.290;2023-04-30T08:28:55;11.50;99.90
64396;DHT22;50717;53.360;6.290;2023-04-30T08:31:21;11.40;99.90
64396;DHT22;50717;53.360;6.290;2023-04-30T08:33:47;11.50;99.90
64396;DHT22;50717;53.360;6.290;2023-04-30T08:36:12;11.30;99.90
64396;DHT22;50717;53.360;6.290;2023-04-30T08:38:38;11.40;99.90
64396;DHT22;50717;53.360;6.290;2023-04-30T08:41:08;11.50;99.90
64396;DHT22;50717;53.360;6.290;2023-04-30T08:43:35;11.70;99.90
64396;DHT22;50717;53.360;6.290;2023-04-30T08:46:02;11.60;99.90
64396;DHT22;50717;53.360;6.290;2023-04-30T08:48:28;11.10;99.90
64396;DHT22;50717;53.360;6.290;2023-04-30T08:50:55;11.80;99.90
64396;DHT22;50717;53.360;6.290;2023-04-30T08:53:21;11.50;99.90
64396;DHT22;50717;53.360;6.290;2023-04-30T08:55:47;11.80;99.90
64396;DHT22;50717;53.360;6.290;2023-04-30T08:58:12;11.60;99.90
64396;DHT22;50717;53.360;6.290;2023-04-30T09:00:38;11.60;99.90
64396;DHT22;50717;53.360;6.290;2023-04-30T09:03:05;12.20;99.90
64396;DHT22;50717;53.360;6.290;2023-04-30T09:05:32;12.10;99.90
64396;DHT22;50717;53.360;6.290;2023-04-30T09:07:58;12.10;99.90
64396;DHT22;50717;53.360;6.290;2023-04-30T09:10:24;12.20;99.90
64396;DHT22;50717;53.360;6.290;2023-04-30T09:13:05;12.00;99.90
64396;DHT22;50717;53.360;6.290;2023-04-30T09:15:32;12.40;99.90
64396;DHT22;50717;53.360;6.290;2023-04-30T09:18:15;12.50;99.90
64396;DHT22;50717;53.360;6.290;2023-04-30T09:20:57;12.10;99.90
64396;DHT22;50717;53.360;6.290;2023-04-30T09:23:24;12.10;99.90
64396;DHT22;50717;53.360;6.290;2023-04-30T09:25:49;12.40;99.90
64396;DHT22;50717;53.360;6.290;2023-04-30T09:28:15;12.20;99.90
64396;DHT22;50717;53.360;6.290;2023-04-30T09:30:41;12.20;99.90
64396;DHT22;50717;53.360;6.290;2023-04-30T09:33:07;12.30;99.90
64396;DHT22;50717;53.360;6.290;2023-04-30T09:35:38;12.70;99.90
64396;DHT22;50717;53.360;6.290;2023-04-30T09:38:04;12.20;99.90
64396;DHT22;50717;53.360;6.290;2023-04-30T09:40:36;12.40;99.90
64396;DHT22;50717;53.360;6.290;2023-04-30T09:43:03;12.70;99.90
64396;DHT22;50717;53.360;6.290;2023-04-30T09:45:58;12.30;99.90
64396;DHT22;50717;53.360;6.290;2023-04-30T09:48:25;12.70;99.90
64396;DHT22;50717;53.360;6.290;2023-04-30T09:50:54;12.20;99.90
64396;DHT22;50717;53.360;6.290;2023-04-30T09:53:19;12.30;99.90
64396;DHT22;50717;53.360;6.290;2023-04-30T09:55:49;12.50;99.90
64396;DHT22;50717;53.360;6.290;2023-04-30T09:58:16;12.80;99.90
64396;DHT22;50717;53.360;6.290;2023-04-30T10:00:44;12.90;99.90
64396;DHT22;50717;53.360;6.290;2023-04-30T10:03:13;12.90;99.90
64396;DHT22;50717;53.360;6.290;2023-04-30T10:05:44;13.00;99.90
64396;DHT22;50717;53.360;6.290;2023-04-30T10:10:44;13.40;99.90
64396;DHT22;50717;53.360;6.290;2023-04-30T10:13:17;13.80;99.90
64396;DHT22;50717;53.360;6.290;2023-04-30T10:15:50;13.50;99.90
64396;DHT22;50717;53.360;6.290;2023-04-30T10:18:22;13.40;99.90
64396;DHT22;50717;53.360;6.290;2023-04-30T10:20:52;13.40;99.90
64396;DHT22;50717;53.360;6.290;2023-04-30T10:23:20;13.80;99.90
64396;DHT22;50717;53.360;6.290;2023-04-30T10:25:46;14.00;99.90
64396;DHT22;50717;53.360;6.290;2023-04-30T10:28:13;13.80;99.90
64396;DHT22;50717;53.360;6.290;2023-04-30T10:30:39;14.40;99.90
64396;DHT22;50717;53.360;6.290;2023-04-30T10:35:58;14.30;99.90
64396;DHT22;50717;53.360;6.290;2023-04-30T10:38:27;14.00;99.90
64396;DHT22;50717;53.360;6.290;2023-04-30T10:40:57;14.40;99.90
64396;DHT22;50717;53.360;6.290;2023-04-30T10:43:24;14.10;99.90
64396;DHT22;50717;53.360;6.290;2023-04-30T10:45:50;14.30;99.90
64396;DHT22;50717;53.360;6.290;2023-04-30T10:48:16;14.50;99.90
64396;DHT22;50717;53.360;6.290;2023-04-30T10:50:51;14.30;99.90
64396;DHT22;50717;53.360;6.290;2023-04-30T10:53:18;14.50;99.90
64396;DHT22;50717;53.360;6.290;2023-04-30T10:55:51;14.70;99.90
64396;DHT22;50717;53.360;6.290;2023-04-30T10:58:31;14.90;99.90
64396;DHT22;50717;53.360;6.290;2023-04-30T11:01:11;14.80;99.90
64396;DHT22;50717;53.360;6.290;2023-04-30T11:03:39;15.30;99.90
64396;DHT22;50717;53.360;6.290;2023-04-30T11:06:14;14.90;99.90
64396;DHT22;50717;53.360;6.290;2023-04-30T11:08:45;15.30;99.90
64396;DHT22;50717;53.360;6.290;2023-04-30T11:11:16;14.80;99.90
64396;DHT22;50717;53.360;6.290;2023-04-30T11:13:47;15.20;99.90
64396;DHT22;50717;53.360;6.290;2023-04-30T11:16:16;15.10;99.90
64396;DHT22;50717;53.360;6.290;2023-04-30T11:18:45;15.50;99.90
64396;DHT22;50717;53.360;6.290;2023-04-30T11:21:11;15.30;99.90
64396;DHT22;50717;53.360;6.290;2023-04-30T11:23:42;15.30;99.90
64396;DHT22;50717;53.360;6.290;2023-04-30T11:26:08;15.70;99.90
64396;DHT22;50717;53.360;6.290;2023-04-30T11:28:36;15.80;99.90
64396;DHT22;50717;53.360;6.290;2023-04-30T11:31:03;15.80;99.90
64396;DHT22;50717;53.360;6.290;2023-04-30T11:33:30;15.60;99.90
64396;DHT22;50717;53.360;6.290;2023-04-30T11:35:57;15.60;99.90
64396;DHT22;50717;53.360;6.290;2023-04-30T11:38:29;15.50;99.90
64396;DHT22;50717;53.360;6.290;2023-04-30T11:40:56;15.50;99.90
64396;DHT22;50717;53.360;6.290;2023-04-30T11:43:28;15.60;99.90
64396;DHT22;50717;53.360;6.290;2023-04-30T11:48:33;16.00;99.90
64396;DHT22;50717;53.360;6.290;2023-04-30T11:51:02;16.40;99.90
64396;DHT22;50717;53.360;6.290;2023-04-30T11:53:28;16.30;99.90
64396;DHT22;50717;53.360;6.290;2023-04-30T11:55:55;16.40;99.90
64396;DHT22;50717;53.360;6.290;2023-04-30T11:58:21;16.80;99.90
64396;DHT22;50717;53.360;6.290;2023-04-30T12:00:48;16.50;99.90
64396;DHT22;50717;53.360;6.290;2023-04-30T12:03:16;16.50;99.90
64396;DHT22;50717;53.360;6.290;2023-04-30T12:05:42;16.60;99.90
64396;DHT22;50717;53.360;6.290;2023-04-30T12:08:07;17.00;99.90
64396;DHT22;50717;53.360;6.290;2023-04-30T12:10:34;16.90;99.90
64396;DHT22;50717;53.360;6.290;2023-04-30T12:13:01;16.80;99.90
64396;DHT22;50717;53.360;6.290;2023-04-30T12:15:27;16.70;99.90
64396;DHT22;50717;53.360;6.290;2023-04-30T12:17:59;16.80;99.90
64396;DHT22;50717;53.360;6.290;2023-04-30T12:20:35;16.40;99.90
64396;DHT22;50717;53.360;6.290;2023-04-30T12:23:04;17.00;99.90
64396;DHT22;50717;53.360;6.290;2023-04-30T12:25:30;16.80;99.90
64396;DHT22;50717;53.360;6.290;2023-04-30T12:27:57;16.90;99.90
64396;DHT22;50717;53.360;6.290;2023-04-30T12:30:24;17.20;99.90
64396;DHT22;50717;53.360;6.290;2023-04-30T12:32:57;16.90;99.90
64396;DHT22;50717;53.360;6.290;2023-04-30T12:35:26;16.80;99.90
64396;DHT22;50717;53.360;6.290;2023-04-30T12:37:59;16.70;99.90
64396;DHT22;50717;53.360;6.290;2023-04-30T12:40:26;16.40;99.90
64396;DHT22;50717;53.360;6.290;2023-04-30T12:43:06;16.50;99.90
64396;DHT22;50717;53.360;6.290;2023-04-30T12:45:52;16.90;99.90
64396;DHT22;50717;53.360;6.290;2023-04-30T12:48:19;17.00;99.90
64396;DHT22;50717;53.360;6.290;2023-04-30T12:53:17;16.70;99.90
64396;DHT22;50717;53.360;6.290;2023-04-30T12:55:43;16.80;99.90
64396;DHT22;50717;53.360;6.290;2023-04-30T12:58:32;17.30;99.90
64396;DHT22;50717;53.360;6.290;2023-04-30T13:00:58;17.00;99.90
64396;DHT22;50717;53.360;6.290;2023-04-30T13:03:23;17.50;99.90
64396;DHT22;50717;53.360;6.290;2023-04-30T13:05:50;17.60;99.90
64396;DHT22;50717;53.360;6.290;2023-04-30T13:08:17;17.40;99.90
64396;DHT22;50717;53.360;6.290;2023-04-30T13:10:44;17.70;99.90
64396;DHT22;50717;53.360;6.290;2023-04-30T13:13:11;17.70;99.90
64396;DHT22;50717;53.360;6.290;2023-04-30T13:15:37;17.30;99.90
64396;DHT22;50717;53.360;6.290;2023-04-30T13:18:03;17.60;99.90
64396;DHT22;50717;53.360;6.290;2023-04-30T13:20:28;17.30;99.90
64396;DHT22;50717;53.360;6.290;2023-04-30T13:22:54;17.50;99.90
64396;DHT22;50717;53.360;6.290;2023-04-30T13:25:20;17.90;99.90
64396;DHT22;50717;53.360;6.290;2023-04-30T13:27:46;17.80;99.90
64396;DHT22;50717;53.360;6.290;2023-04-30T13:30:12;17.40;99.90
64396;DHT22;50717;53.360;6.290;2023-04-30T13:32:39;17.90;99.90
64396;DHT22;50717;53.360;6.290;2023-04-30T13:35:05;17.40;99.90
64396;DHT22;50717;53.360;6.290;2023-04-30T13:37:31;17.50;99.90
64396;DHT22;50717;53.360;6.290;2023-04-30T13:39:56;18.00;99.90
64396;DHT22;50717;53.360;6.290;2023-04-30T13:42:25;18.10;99.90
64396;DHT22;50717;53.360;6.290;2023-04-30T13:44:51;18.00;99.90
64396;DHT22;50717;53.360;6.290;2023-04-30T13:47:17;18.20;99.90
64396;DHT22;50717;53.360;6.290;2023-04-30T13:49:43;18.40;99.90
64396;DHT22;50717;53.360;6.290;2023-04-30T13:52:08;18.60;99.90
64396;DHT22;50717;53.360;6.290;2023-04-30T13:54:34;18.70;99.90
64396;DHT22;50717;53.360;6.290;2023-04-30T13:57:00;18.70;99.90
64396;DHT22;50717;53.360;6.290;2023-04-30T13:59:26;18.60;99.90
64396;DHT22;50717;53.360;6.290;2023-04-30T14:01:52;18.70;99.90
64396;DHT22;50717;53.360;6.290;2023-04-30T14:04:18;19.10;99.90
64396;DHT22;50717;53.360;6.290;2023-04-30T14:06:44;19.30;99.90
64396;DHT22;50717;53.360;6.290;2023-04-30T14:09:09;19.00;99.90
64396;DHT22;50717;53.360;6.290;2023-04-30T14:11:36;19.20;99.90
64396;DHT22;50717;53.360;6.290;2023-04-30T14:14:02;18.90;99.90
64396;DHT22;50717;53.360;6.290;2023-04-30T14:16:27;19.40;99.90
64396;DHT22;50717;53.360;6.290;2023-04-30T14:18:53;19.10;99.90
64396;DHT22;50717;53.360;6.290;2023-04-30T14:21:19;19.30;99.90
64396;DHT22;50717;53.360;6.290;2023-04-30T14:23:45;19.30;99.90
64396;DHT22;50717;53.360;6.290;2023-04-30T14:26:12;19.30;99.90
64396;DHT22;50717;53.360;6.290;2023-04-30T14:28:37;19.60;99.90
64396;DHT22;50717;53.360;6.290;2023-04-30T14:31:03;19.60;99.90
64396;DHT22;50717;53.360;6.290;2023-04-30T14:33:32;20.10;99.90
64396;DHT22;50717;53.360;6.290;2023-04-30T14:35:58;20.10;99.90
64396;DHT22;50717;53.360;6.290;2023-04-30T14:38:27;20.50;99.90
64396;DHT22;50717;53.360;6.290;2023-04-30T14:40:52;20.60;99.90
64396;DHT22;50717;53.360;6.290;2023-04-30T14:43:18;20.50;99.90
64396;DHT22;50717;53.360;6.290;2023-04-30T14:45:44;20.80;99.90
64396;DHT22;50717;53.360;6.290;2023-04-30T14:48:10;20.80;99.90
64396;DHT22;50717;53.360;6.290;2023-04-30T14:50:36;21.20;99.90
64396;DHT22;50717;53.360;6.290;2023-04-30T14:53:03;20.90;99.90
64396;DHT22;50717;53.360;6.290;2023-04-30T14:55:30;21.50;99.90
64396;DHT22;50717;53.360;6.290;2023-04-30T14:57:56;20.70;99.90
64396;DHT22;50717;53.360;6.290;2023-04-30T15:00:21;21.20;99.90
64396;DHT22;50717;53.360;6.290;2023-04-30T15:02:47;21.60;99.90
64396;DHT22;50717;53.360;6.290;2023-04-30T15:05:13;21.30;99.90
64396;DHT22;50717;53.360;6.290;2023-04-30T15:07:38;21.00;99.90
64396;DHT22;50717;53.360;6.290;2023-04-30T15:10:05;21.60;99.90
64396;DHT22;50717;53.360;6.290;2023-04-30T15:12:31;21.90;99.90
64396;DHT22;50717;53.360;6.290;2023-04-30T15:14:58;22.00;99.90
64396;DHT22;50717;53.360;6.290;2023-04-30T15:17:25;21.80;99.90
64396;DHT22;50717;53.360;6.290;2023-04-30T15:19:50;22.40;99.90
64396;DHT22;50717;53.360;6.290;2023-04-30T15:22:17;21.80;99.90
64396;DHT22;50717;53.360;6.290;2023-04-30T15:24:43;21.90;99.90
64396;DHT22;50717;53.360;6.290;2023-04-30T15:27:09;22.20;99.90
64396;DHT22;50717;53.360;6.290;2023-04-30T15:29:34;22.30;99.90
64396;DHT22;50717;53.360;6.290;2023-04-30T15:32:01;22.50;99.90
64396;DHT22;50717;53.360;6.290;2023-04-30T15:34:27;22.40;99.90
64396;DHT22;50717;53.360;6.290;2023-04-30T15:36:53;22.70;99.90
64396;DHT22;50717;53.360;6.290;2023-04-30T15:39:19;22.20;99.90
64396;DHT22;50717;53.360;6.290;2023-04-30T15:41:46;22.10;99.90
64396;DHT22;50717;53.360;6.290;2023-04-30T15:44:12;22.10;99.90
64396;DHT22;50717;53.360;6.290;2023-04-30T15:46:37;22.30;99.90
64396;DHT22;50717;53.360;6.290;2023-04-30T17:16:13;15.90;99.90
64396;DHT22;50717;53.360;6.290;2023-04-30T17:18:39;15.60;99.90
64396;DHT22;50717;53.360;6.290;2023-04-30T17:21:05;15.50;99.90
64396;DHT22;50717;53.360;6.290;2023-04-30T17:23:31;15.90;99.90
64396;DHT22;50717;53.360;6.290;2023-04-30T17:25:56;15.60;99.90
64396;DHT22;50717;53.360;6.290;2023-04-30T17:28:22;15.40;99.90
64396;DHT22;50717;53.360;6.290;2023-04-30T17:30:48;15.10;99.90
64396;DHT22;50717;53.360;6.290;2023-04-30T17:33:14;15.40;99.90
64396;DHT22;50717;53.360;6.290;2023-04-30T17:35:40;15.00;99.90
64396;DHT22;50717;53.360;6.290;2023-04-30T17:38:05;14.90;99.90